Mc Faddin, Texas
Current Conditions -  °F | °C
As of 12:15 PM on Thursday 29 Jan 2015 (Local Time) from KPKV Reporting Station
Broken Clouds Broken Clouds  
Wind Chill: 73°   Ceiling: 3200
Heat Index: 73°   Visibility: 10mi
Dew Point: 61°   Wind: 8mph
Humidity: 64%   Direction: 170°S
Pressure: 30.25"   Gusts: NA
Location:  28.5526°N, 97.018°W
Report Text: KPKV 291815Z AUTO 17007KT 10SM BKN032 23/16 A3025 RMK AO2 T02300159
Loading
Personal Weather Stations






























Interactive Weather Map New forecast layout! Learn more

10-Day Weather Forecast

Advertisements
Track Severe Weather on mobile